Time,TemperatureF,DewpointF,PressureIn,WindDirection,WindDirectionDegrees,WindSpeedMPH,WindSpeedGustMPH,Humidity,HourlyPrecipIn,Conditions,Clouds,dailyrainin,SoftwareType,DateUTC
2013-02-05 00:03:00,67.0,-99.9,30.08,WSW,238,5.0,6.0,-999,-99.99,,,-99.99,,2013-02-05 05:03:00,
2013-02-05 00:12:00,66.0,-99.9,30.08,WSW,255,6.0,7.0,-999,-99.99,,,-99.99,,2013-02-05 05:12:00,
2013-02-05 00:22:00,65.0,-99.9,30.08,WSW,251,6.0,7.0,-999,-99.99,,,-99.99,,2013-02-05 05:22:00,
2013-02-05 00:32:00,64.0,-99.9,30.07,West,262,6.0,7.0,-999,-99.99,,,-99.99,,2013-02-05 05:32:00,
2013-02-05 00:42:00,63.0,-99.9,30.08,West,281,5.0,6.0,-999,-99.99,,,-99.99,,2013-02-05 05:42:00,
2013-02-05 00:52:00,63.0,-99.9,30.07,West,269,4.0,7.0,-999,-99.99,,,-99.99,,2013-02-05 05:52:00,
2013-02-05 01:02:00,63.0,-99.9,30.07,West,275,5.0,6.0,-999,-99.99,,,-99.99,,2013-02-05 06:02:00,
2013-02-05 01:11:00,63.0,-99.9,30.07,WNW,286,5.0,6.0,-999,-99.99,,,-99.99,,2013-02-05 06:11:00,
2013-02-05 01:22:00,62.0,-99.9,30.07,WNW,284,5.0,7.0,-999,-99.99,,,-99.99,,2013-02-05 06:22:00,
2013-02-05 01:32:00,62.0,-99.9,30.07,West,280,6.0,7.0,-999,-99.99,,,-99.99,,2013-02-05 06:32:00,
2013-02-05 01:42:00,61.0,-99.9,30.07,WNW,290,6.0,7.0,-999,-99.99,,,-99.99,,2013-02-05 06:42:00,
2013-02-05 01:52:00,61.0,-99.9,30.07,WNW,288,5.0,7.0,-999,-99.99,,,-99.99,,2013-02-05 06:52:00,
2013-02-05 02:01:00,61.0,-99.9,30.06,WNW,287,6.0,7.0,-999,-99.99,,,-99.99,,2013-02-05 07:01:00,
2013-02-05 02:12:00,61.0,-99.9,30.06,WNW,286,6.0,7.0,-999,-99.99,,,-99.99,,2013-02-05 07:12:00,
2013-02-05 02:22:00,62.0,-99.9,30.06,WNW,283,6.0,7.0,-999,-99.99,,,-99.99,,2013-02-05 07:22:00,
2013-02-05 02:32:00,62.0,-99.9,30.06,WNW,284,6.0,7.0,-999,-99.99,,,-99.99,,2013-02-05 07:32:00,
2013-02-05 02:42:00,61.0,-99.9,30.06,WNW,284,6.0,7.0,-999,-99.99,,,-99.99,,2013-02-05 07:42:00,
2013-02-05 02:52:00,61.0,-99.9,30.06,West,281,6.0,7.0,-999,-99.99,,,-99.99,,2013-02-05 07:52:00,
2013-02-05 03:01:00,61.0,-99.9,30.06,West,281,6.0,7.0,-999,-99.99,,,-99.99,,2013-02-05 08:01:00,
2013-02-05 03:11:00,62.0,-99.9,30.05,West,281,5.0,6.0,-999,-99.99,,,-99.99,,2013-02-05 08:11:00,
2013-02-05 03:22:00,62.0,-99.9,30.05,West,280,5.0,7.0,-999,-99.99,,,-99.99,,2013-02-05 08:22:00,
2013-02-05 03:32:00,62.0,-99.9,30.05,West,269,4.0,6.0,-999,-99.99,,,-99.99,,2013-02-05 08:32:00,
2013-02-05 03:42:00,62.0,-99.9,30.04,West,276,6.0,7.0,-999,-99.99,,,-99.99,,2013-02-05 08:42:00,
2013-02-05 03:52:00,62.0,-99.9,30.04,West,272,5.0,8.0,-999,-99.99,,,-99.99,,2013-02-05 08:52:00,
2013-02-05 04:02:00,62.0,-99.9,30.04,West,268,5.0,6.0,-999,-99.99,,,-99.99,,2013-02-05 09:02:00,
2013-02-05 04:12:00,62.0,-99.9,30.04,WNW,288,6.0,7.0,-999,-99.99,,,-99.99,,2013-02-05 09:12:00,
2013-02-05 04:22:00,62.0,-99.9,30.05,WNW,289,5.0,7.0,-999,-99.99,,,-99.99,,2013-02-05 09:22:00,
2013-02-05 04:32:00,61.0,-99.9,30.05,West,280,5.0,6.0,-999,-99.99,,,-99.99,,2013-02-05 09:32:00,
2013-02-05 04:42:00,62.0,-99.9,30.04,West,267,5.0,8.0,-999,-99.99,,,-99.99,,2013-02-05 09:42:00,
2013-02-05 04:52:00,62.0,-99.9,30.04,West,280,6.0,8.0,-999,-99.99,,,-99.99,,2013-02-05 09:52:00,
2013-02-05 05:02:00,62.0,-99.9,30.04,WNW,287,5.0,7.0,-999,-99.99,,,-99.99,,2013-02-05 10:02:00,
2013-02-05 05:11:00,62.0,-99.9,30.04,WNW,282,3.0,6.0,-999,-99.99,,,-99.99,,2013-02-05 10:11:00,
2013-02-05 05:22:00,62.0,-99.9,30.04,West,271,3.0,6.0,-999,-99.99,,,-99.99,,2013-02-05 10:22:00,
2013-02-05 05:32:00,61.0,-99.9,30.04,West,280,4.0,5.0,-999,-99.99,,,-99.99,,2013-02-05 10:32:00,
2013-02-05 05:42:00,61.0,-99.9,30.04,WNW,285,5.0,6.0,-999,-99.99,,,-99.99,,2013-02-05 10:42:00,
2013-02-05 05:52:00,60.0,-99.9,30.04,WNW,284,5.0,6.0,-999,-99.99,,,-99.99,,2013-02-05 10:52:00,
2013-02-05 06:02:00,60.0,-99.9,30.04,WNW,287,6.0,7.0,-999,-99.99,,,-99.99,,2013-02-05 11:02:00,
2013-02-05 06:11:00,60.0,-99.9,30.05,West,263,6.0,10.0,-999,-99.99,,,-99.99,,2013-02-05 11:11:00,
2013-02-05 06:22:00,60.0,-99.9,30.05,WNW,284,5.0,9.0,-999,-99.99,,,-99.99,,2013-02-05 11:22:00,
2013-02-05 06:32:00,60.0,-99.9,30.06,WNW,284,6.0,7.0,-999,-99.99,,,-99.99,,2013-02-05 11:32:00,
2013-02-05 06:42:00,60.0,-99.9,30.06,WNW,288,6.0,7.0,-999,-99.99,,,-99.99,,2013-02-05 11:42:00,
2013-02-05 06:53:00,60.0,-99.9,30.06,WNW,284,5.0,7.0,-999,-99.99,,,-99.99,,2013-02-05 11:53:00,
2013-02-05 07:02:00,60.0,-99.9,30.06,West,281,6.0,7.0,-999,-99.99,,,-99.99,,2013-02-05 12:02:00,
2013-02-05 07:12:00,60.0,-99.9,30.06,WNW,283,6.0,7.0,-999,-99.99,,,-99.99,,2013-02-05 12:12:00,
2013-02-05 07:22:00,60.0,-99.9,30.07,WNW,286,6.0,7.0,-999,-99.99,,,-99.99,,2013-02-05 12:22:00,
2013-02-05 07:32:00,60.0,-99.9,30.07,WNW,294,7.0,9.0,-999,-99.99,,,-99.99,,2013-02-05 12:32:00,
2013-02-05 07:42:00,61.0,-99.9,30.07,WNW,298,6.0,8.0,-999,-99.99,,,-99.99,,2013-02-05 12:42:00,
2013-02-05 07:52:00,61.0,-99.9,30.07,WNW,296,6.0,8.0,-999,-99.99,,,-99.99,,2013-02-05 12:52:00,
2013-02-05 08:02:00,61.0,-99.9,30.07,WNW,290,5.0,6.0,-999,-99.99,,,-99.99,,2013-02-05 13:02:00,
2013-02-05 08:12:00,62.0,-99.9,30.07,WNW,292,4.0,6.0,-999,-99.99,,,-99.99,,2013-02-05 13:12:00,
2013-02-05 08:22:00,63.0,-99.9,30.07,WNW,293,4.0,6.0,-999,-99.99,,,-99.99,,2013-02-05 13:22:00,
2013-02-05 08:32:00,64.0,-99.9,30.08,West,280,4.0,5.0,-999,-99.99,,,-99.99,,2013-02-05 13:32:00,
2013-02-05 08:42:00,65.0,-99.9,30.08,WNW,286,2.0,4.0,-999,-99.99,,,-99.99,,2013-02-05 13:42:00,
2013-02-05 08:52:00,66.0,-99.9,30.08,West,270,-999.0,2.0,-999,-99.99,,,-99.99,,2013-02-05 13:52:00,
2013-02-05 09:01:00,68.0,-99.9,30.08,North,-999,-999.0,-999.0,-999,-99.99,,,-99.99,,2013-02-05 14:01:00,
2013-02-05 09:12:00,69.0,-99.9,30.08,North,-999,-999.0,-999.0,-999,-99.99,,,-99.99,,2013-02-05 14:12:00,
2013-02-05 09:22:00,69.0,-99.9,30.08,North,-999,-999.0,-999.0,-999,-99.99,,,-99.99,,2013-02-05 14:22:00,
2013-02-05 09:32:00,71.0,-99.9,30.09,North,-999,-999.0,-999.0,-999,-99.99,,,-99.99,,2013-02-05 14:32:00,
2013-02-05 09:42:00,70.0,-99.9,30.09,North,-999,-999.0,-999.0,-999,-99.99,,,-99.99,,2013-02-05 14:42:00,
2013-02-05 09:52:00,71.0,-99.9,30.09,North,-999,-999.0,-999.0,-999,-99.99,,,-99.99,,2013-02-05 14:52:00,
2013-02-05 10:02:00,71.0,-99.9,30.09,North,-999,-999.0,-999.0,-999,-99.99,,,-99.99,,2013-02-05 15:02:00,
2013-02-05 10:11:00,71.0,-99.9,30.09,North,-999,-999.0,-999.0,-999,-99.99,,,-99.99,,2013-02-05 15:11:00,
2013-02-05 10:22:00,71.0,-99.9,30.09,SSE,151,6.0,7.0,-999,-99.99,,,-99.99,,2013-02-05 15:22:00,
2013-02-05 10:32:00,71.0,-99.9,30.09,SE,135,8.0,9.0,-999,-99.99,,,-99.99,,2013-02-05 15:32:00,
2013-02-05 10:42:00,71.0,-99.9,30.10,SE,142,7.0,10.0,-999,-99.99,,,-99.99,,2013-02-05 15:42:00,
2013-02-05 10:52:00,71.0,-99.9,30.09,SSE,161,7.0,9.0,-999,-99.99,,,-99.99,,2013-02-05 15:52:00,
2013-02-05 11:02:00,71.0,-99.9,30.10,SSE,161,9.0,11.0,-999,-99.99,,,-99.99,,2013-02-05 16:02:00,
2013-02-05 11:12:00,71.0,-99.9,30.10,SSE,148,10.0,12.0,-999,-99.99,,,-99.99,,2013-02-05 16:12:00,
2013-02-05 11:22:00,71.0,-99.9,30.10,SE,136,7.0,10.0,-999,-99.99,,,-99.99,,2013-02-05 16:22:00,
2013-02-05 11:33:00,71.0,-99.9,30.09,SE,143,8.0,10.0,-999,-99.99,,,-99.99,,2013-02-05 16:33:00,
2013-02-05 11:42:00,71.0,-99.9,30.09,SSE,157,8.0,10.0,-999,-99.99,,,-99.99,,2013-02-05 16:42:00,
2013-02-05 11:52:00,71.0,-99.9,30.09,SSE,158,9.0,11.0,-999,-99.99,,,-99.99,,2013-02-05 16:52:00,
2013-02-05 12:01:00,71.0,-99.9,30.09,SSE,165,8.0,12.0,-999,-99.99,,,-99.99,,2013-02-05 17:01:00,
2013-02-05 12:12:00,72.0,-99.9,30.09,SSE,158,6.0,8.0,-999,-99.99,,,-99.99,,2013-02-05 17:12:00,
2013-02-05 12:22:00,71.0,-99.9,30.09,SSE,151,9.0,11.0,-999,-99.99,,,-99.99,,2013-02-05 17:22:00,
2013-02-05 12:33:00,72.0,-99.9,30.08,SSE,155,7.0,10.0,-999,-99.99,,,-99.99,,2013-02-05 17:33:00,
2013-02-05 12:42:00,72.0,-99.9,30.08,SE,140,7.0,9.0,-999,-99.99,,,-99.99,,2013-02-05 17:42:00,
2013-02-05 12:52:00,72.0,-99.9,30.07,SSE,156,9.0,11.0,-999,-99.99,,,-99.99,,2013-02-05 17:52:00,
2013-02-05 13:02:00,72.0,-99.9,30.07,SSE,149,8.0,11.0,-999,-99.99,,,-99.99,,2013-02-05 18:02:00,
2013-02-05 13:12:00,72.0,-99.9,30.06,SE,136,8.0,11.0,-999,-99.99,,,-99.99,,2013-02-05 18:12:00,
2013-02-05 13:22:00,72.0,-99.9,30.06,SE,142,9.0,12.0,-999,-99.99,,,-99.99,,2013-02-05 18:22:00,
2013-02-05 13:32:00,72.0,-99.9,30.06,SE,138,10.0,12.0,-999,-99.99,,,-99.99,,2013-02-05 18:32:00,
2013-02-05 13:42:00,72.0,-99.9,30.05,SE,143,10.0,11.0,-999,-99.99,,,-99.99,,2013-02-05 18:42:00,
2013-02-05 13:52:00,72.0,-99.9,30.05,SE,136,10.0,11.0,-999,-99.99,,,-99.99,,2013-02-05 18:52:00,
2013-02-05 14:02:00,72.0,-99.9,30.04,SE,141,10.0,12.0,-999,-99.99,,,-99.99,,2013-02-05 19:02:00,
2013-02-05 14:11:00,72.0,-99.9,30.04,SE,132,10.0,12.0,-999,-99.99,,,-99.99,,2013-02-05 19:11:00,
2013-02-05 14:22:00,72.0,-99.9,30.04,SE,135,9.0,11.0,-999,-99.99,,,-99.99,,2013-02-05 19:22:00,
2013-02-05 14:32:00,72.0,-99.9,30.04,SE,131,11.0,13.0,-999,-99.99,,,-99.99,,2013-02-05 19:32:00,
2013-02-05 14:42:00,72.0,-99.9,30.04,SE,141,11.0,13.0,-999,-99.99,,,-99.99,,2013-02-05 19:42:00,
2013-02-05 14:52:00,73.0,-99.9,30.04,SE,141,11.0,12.0,-999,-99.99,,,-99.99,,2013-02-05 19:52:00,
2013-02-05 15:02:00,72.0,-99.9,30.04,SE,145,10.0,12.0,-999,-99.99,,,-99.99,,2013-02-05 20:02:00,
2013-02-05 15:11:00,72.0,-99.9,30.03,SSE,150,10.0,11.0,-999,-99.99,,,-99.99,,2013-02-05 20:11:00,
2013-02-05 15:22:00,73.0,-99.9,30.03,SE,138,10.0,13.0,-999,-99.99,,,-99.99,,2013-02-05 20:22:00,
2013-02-05 15:32:00,73.0,-99.9,30.03,SSE,150,11.0,13.0,-999,-99.99,,,-99.99,,2013-02-05 20:32:00,
2013-02-05 15:42:00,73.0,-99.9,30.03,SE,142,9.0,12.0,-999,-99.99,,,-99.99,,2013-02-05 20:42:00,
2013-02-05 15:52:00,73.0,-99.9,30.03,SE,145,11.0,13.0,-999,-99.99,,,-99.99,,2013-02-05 20:52:00,
2013-02-05 16:02:00,73.0,-99.9,30.02,SE,138,10.0,14.0,-999,-99.99,,,-99.99,,2013-02-05 21:02:00,
2013-02-05 16:11:00,73.0,-99.9,30.02,SE,135,11.0,13.0,-999,-99.99,,,-99.99,,2013-02-05 21:11:00,
2013-02-05 16:22:00,73.0,-99.9,30.02,SE,136,11.0,13.0,-999,-99.99,,,-99.99,,2013-02-05 21:22:00,
2013-02-05 16:32:00,73.0,-99.9,30.02,SE,141,13.0,14.0,-999,-99.99,,,-99.99,,2013-02-05 21:32:00,
2013-02-05 16:42:00,73.0,-99.9,30.02,SSE,148,13.0,15.0,-999,-99.99,,,-99.99,,2013-02-05 21:42:00,
2013-02-05 16:52:00,73.0,-99.9,30.02,SE,144,11.0,16.0,-999,-99.99,,,-99.99,,2013-02-05 21:52:00,
2013-02-05 17:02:00,73.0,-99.9,30.02,SE,141,11.0,14.0,-999,-99.99,,,-99.99,,2013-02-05 22:02:00,
2013-02-05 17:12:00,73.0,-99.9,30.03,SE,132,11.0,12.0,-999,-99.99,,,-99.99,,2013-02-05 22:12:00,
2013-02-05 17:22:00,73.0,-99.9,30.02,SSE,150,10.0,13.0,-999,-99.99,,,-99.99,,2013-02-05 22:22:00,
2013-02-05 17:32:00,73.0,-99.9,30.02,SE,144,11.0,13.0,-999,-99.99,,,-99.99,,2013-02-05 22:32:00,
2013-02-05 17:42:00,73.0,-99.9,30.02,SSE,149,12.0,14.0,-999,-99.99,,,-99.99,,2013-02-05 22:42:00,
2013-02-05 17:52:00,73.0,-99.9,30.02,SE,144,13.0,14.0,-999,-99.99,,,-99.99,,2013-02-05 22:52:00,
2013-02-05 18:02:00,73.0,-99.9,30.02,SSE,149,14.0,16.0,-999,-99.99,,,-99.99,,2013-02-05 23:02:00,
2013-02-05 18:11:00,73.0,-99.9,30.02,SE,143,12.0,14.0,-999,-99.99,,,-99.99,,2013-02-05 23:11:00,
2013-02-05 18:22:00,73.0,-99.9,30.02,SSE,152,13.0,15.0,-999,-99.99,,,-99.99,,2013-02-05 23:22:00,
2013-02-05 18:33:00,73.0,-99.9,30.02,SSE,151,12.0,14.0,-999,-99.99,,,-99.99,,2013-02-05 23:33:00,
2013-02-05 18:42:00,73.0,-99.9,30.02,SE,143,9.0,12.0,-999,-99.99,,,-99.99,,2013-02-05 23:42:00,
2013-02-05 18:53:00,73.0,-99.9,30.02,SE,142,10.0,12.0,-999,-99.99,,,-99.99,,2013-02-05 23:53:00,
2013-02-05 19:02:00,73.0,-99.9,30.02,SE,145,10.0,12.0,-999,-99.99,,,-99.99,,2013-02-06 00:02:00,
2013-02-05 19:12:00,73.0,-99.9,30.02,SE,145,10.0,11.0,-999,-99.99,,,-99.99,,2013-02-06 00:12:00,
2013-02-05 19:22:00,73.0,-99.9,30.02,SE,144,13.0,14.0,-999,-99.99,,,-99.99,,2013-02-06 00:22:00,
2013-02-05 19:32:00,73.0,-99.9,30.03,SE,140,10.0,14.0,-999,-99.99,,,-99.99,,2013-02-06 00:32:00,
2013-02-05 19:42:00,73.0,-99.9,30.03,SE,139,11.0,12.0,-999,-99.99,,,-99.99,,2013-02-06 00:42:00,
2013-02-05 19:52:00,73.0,-99.9,30.03,SE,130,10.0,12.0,-999,-99.99,,,-99.99,,2013-02-06 00:52:00,
2013-02-05 20:02:00,73.0,-99.9,30.04,SE,132,11.0,13.0,-999,-99.99,,,-99.99,,2013-02-06 01:02:00,
2013-02-05 20:12:00,73.0,-99.9,30.04,SE,146,12.0,15.0,-999,-99.99,,,-99.99,,2013-02-06 01:12:00,
2013-02-05 20:22:00,73.0,-99.9,30.04,SSE,155,11.0,13.0,-999,-99.99,,,-99.99,,2013-02-06 01:22:00,
2013-02-05 20:33:00,73.0,-99.9,30.04,SE,139,11.0,15.0,-999,-99.99,,,-99.99,,2013-02-06 01:33:00,
2013-02-05 20:42:00,73.0,-99.9,30.04,SE,144,11.0,14.0,-999,-99.99,,,-99.99,,2013-02-06 01:42:00,
2013-02-05 20:53:00,73.0,-99.9,30.04,SSE,149,11.0,13.0,-999,-99.99,,,-99.99,,2013-02-06 01:53:00,
2013-02-05 21:02:00,73.0,-99.9,30.04,SSE,154,12.0,15.0,-999,-99.99,,,-99.99,,2013-02-06 02:02:00,
2013-02-05 21:12:00,73.0,-99.9,30.05,SSE,150,13.0,15.0,-999,-99.99,,,-99.99,,2013-02-06 02:12:00,
2013-02-05 21:22:00,73.0,-99.9,30.05,SE,139,13.0,15.0,-999,-99.99,,,-99.99,,2013-02-06 02:22:00,
2013-02-05 21:32:00,73.0,-99.9,30.05,SE,146,11.0,15.0,-999,-99.99,,,-99.99,,2013-02-06 02:32:00,
2013-02-05 21:43:00,73.0,-99.9,30.04,SSE,151,13.0,15.0,-999,-99.99,,,-99.99,,2013-02-06 02:43:00,
2013-02-05 21:53:00,73.0,-99.9,30.05,SSE,150,12.0,15.0,-999,-99.99,,,-99.99,,2013-02-06 02:53:00,
2013-02-05 22:03:00,73.0,-99.9,30.05,SE,146,10.0,15.0,-999,-99.99,,,-99.99,,2013-02-06 03:03:00,
2013-02-05 22:12:00,73.0,-99.9,30.05,SE,144,11.0,14.0,-999,-99.99,,,-99.99,,2013-02-06 03:12:00,
2013-02-05 22:22:00,73.0,-99.9,30.05,SSE,152,11.0,13.0,-999,-99.99,,,-99.99,,2013-02-06 03:22:00,
2013-02-05 22:33:00,73.0,-99.9,30.05,SSE,147,10.0,14.0,-999,-99.99,,,-99.99,,2013-02-06 03:33:00,
2013-02-05 22:43:00,73.0,-99.9,30.06,SSE,158,12.0,13.0,-999,-99.99,,,-99.99,,2013-02-06 03:43:00,
2013-02-05 22:53:00,73.0,-99.9,30.06,SSE,147,10.0,13.0,-999,-99.99,,,-99.99,,2013-02-06 03:53:00,
2013-02-05 23:02:00,73.0,-99.9,30.06,SSE,148,8.0,11.0,-999,-99.99,,,-99.99,,2013-02-06 04:02:00,
2013-02-05 23:12:00,73.0,-99.9,30.06,SSE,152,10.0,12.0,-999,-99.99,,,-99.99,,2013-02-06 04:12:00,
2013-02-05 23:22:00,73.0,-99.9,30.06,SSE,151,11.0,12.0,-999,-99.99,,,-99.99,,2013-02-06 04:22:00,
2013-02-05 23:32:00,73.0,-99.9,30.06,SSE,151,10.0,12.0,-999,-99.99,,,-99.99,,2013-02-06 04:32:00,
2013-02-05 23:42:00,73.0,-99.9,30.06,SSE,149,11.0,13.0,-999,-99.99,,,-99.99,,2013-02-06 04:42:00,
2013-02-05 23:52:00,73.0,-99.9,30.06,SSE,150,10.0,13.0,-999,-99.99,,,-99.99,,2013-02-06 04:52:00,